createdAt,value
2022-11-03T00:02:00.358Z,9.20
2022-11-03T00:04:27.471Z,9.65
2022-11-03T00:06:55.495Z,9.00
2022-11-03T00:09:24.055Z,8.45
2022-11-03T00:11:52.063Z,9.05
2022-11-03T00:14:19.951Z,9.50
2022-11-03T00:16:47.501Z,9.70
2022-11-03T00:19:17.313Z,9.68
2022-11-03T00:21:45.478Z,9.88
2022-11-03T00:24:13.480Z,9.10
2022-11-03T00:26:40.705Z,9.82
2022-11-03T00:29:13.248Z,9.77
2022-11-03T00:31:42.349Z,9.43
2022-11-03T00:34:09.997Z,9.18
2022-11-03T00:36:45.000Z,9.13
2022-11-03T00:39:12.819Z,9.70
2022-11-03T00:41:40.549Z,8.70
2022-11-03T00:44:08.520Z,10.13
2022-11-03T00:46:35.823Z,10.18
2022-11-03T00:49:04.602Z,9.98
2022-11-03T00:51:31.982Z,9.30
2022-11-03T00:54:01.202Z,10.40
2022-11-03T00:56:37.192Z,9.77
2022-11-03T00:59:06.178Z,9.77
2022-11-03T01:01:46.540Z,11.25
2022-11-03T01:04:34.087Z,11.02
2022-11-03T01:07:01.874Z,10.48
2022-11-03T01:09:31.964Z,10.15
2022-11-03T01:12:14.986Z,11.02
2022-11-03T01:17:12.937Z,8.93
2022-11-03T01:19:40.174Z,10.50
2022-11-03T01:22:10.692Z,10.85
2022-11-03T01:24:42.447Z,10.10
2022-11-03T01:27:11.437Z,10.43
2022-11-03T01:29:38.365Z,11.05
2022-11-03T01:32:05.608Z,10.07
2022-11-03T01:34:32.689Z,10.27
2022-11-03T01:36:59.602Z,10.18
2022-11-03T01:39:26.785Z,9.70
2022-11-03T01:41:54.375Z,9.77
2022-11-03T01:44:40.058Z,9.00
2022-11-03T01:47:29.787Z,9.35
2022-11-03T01:50:08.467Z,8.15
2022-11-03T01:52:45.003Z,8.65
2022-11-03T01:55:25.080Z,8.77
2022-11-03T01:58:01.412Z,9.32
2022-11-03T02:00:28.993Z,8.43
2022-11-03T02:02:56.515Z,9.65
2022-11-03T02:05:26.431Z,8.35
2022-11-03T02:08:06.091Z,7.72
2022-11-03T02:10:33.930Z,7.53
2022-11-03T02:13:03.137Z,7.70
2022-11-03T02:15:31.701Z,7.50
2022-11-03T02:17:59.977Z,7.82
2022-11-03T02:20:32.064Z,7.15
2022-11-03T02:23:17.380Z,6.80
2022-11-03T02:25:53.532Z,5.95
2022-11-03T02:28:24.084Z,7.35
2022-11-03T02:31:00.205Z,6.18
2022-11-03T02:33:58.206Z,6.35
2022-11-03T02:36:51.193Z,5.70
2022-11-03T02:39:32.195Z,5.93
2022-11-03T02:42:03.440Z,6.38
2022-11-03T02:44:34.219Z,5.90
2022-11-03T02:47:05.402Z,6.10
2022-11-03T02:49:32.535Z,5.95
2022-11-03T02:52:04.766Z,5.85
2022-11-03T02:54:44.583Z,5.78
2022-11-03T02:57:21.545Z,5.82
2022-11-03T02:59:59.058Z,5.82
2022-11-03T06:04:21.447Z,5.13
2022-11-03T06:06:53.301Z,4.38
2022-11-03T06:09:25.561Z,4.53
2022-11-03T06:11:56.455Z,5.18
2022-11-03T06:14:28.498Z,5.47
2022-11-03T06:17:07.708Z,4.82
2022-11-03T06:19:48.312Z,5.65
2022-11-03T06:22:29.511Z,6.38
2022-11-03T06:25:01.760Z,5.15
2022-11-03T06:27:34.504Z,5.63
2022-11-03T06:30:29.868Z,5.38
2022-11-03T06:33:25.602Z,5.43
2022-11-03T06:35:55.912Z,5.18
2022-11-03T06:38:26.248Z,4.80
2022-11-03T06:40:54.274Z,5.78
2022-11-03T06:43:45.404Z,4.38
2022-11-03T06:46:21.151Z,4.85
2022-11-03T06:48:48.718Z,4.18
2022-11-03T06:51:23.077Z,4.55
2022-11-03T06:53:52.687Z,4.30
2022-11-03T06:56:22.682Z,4.78
2022-11-03T06:58:56.365Z,4.88
2022-11-03T07:01:27.267Z,4.28
2022-11-03T07:04:01.432Z,4.85
2022-11-03T07:06:37.570Z,4.82
2022-11-03T07:09:09.956Z,4.47
2022-11-03T07:12:09.217Z,4.65
2022-11-03T07:14:37.275Z,5.25
2022-11-03T07:17:07.226Z,5.28
2022-11-03T07:19:42.637Z,6.03
2022-11-03T07:22:26.098Z,5.85
2022-11-03T07:24:57.057Z,4.50
2022-11-03T07:27:28.412Z,5.05
2022-11-03T07:30:06.028Z,5.25
2022-11-03T07:32:34.485Z,5.72
2022-11-03T07:35:26.509Z,5.45
2022-11-03T07:37:55.610Z,3.70
2022-11-03T07:40:25.417Z,5.90
2022-11-03T07:42:58.399Z,5.35
2022-11-03T07:45:37.887Z,5.40
2022-11-03T07:48:26.734Z,4.82
2022-11-03T07:50:56.694Z,5.25
2022-11-03T07:53:40.110Z,5.40
2022-11-03T07:56:25.761Z,4.63
2022-11-03T07:59:00.272Z,4.55
2022-11-03T08:01:31.376Z,5.35
2022-11-03T08:04:05.981Z,5.15
2022-11-03T08:06:33.664Z,4.90
2022-11-03T08:09:00.973Z,5.18
2022-11-03T08:11:29.682Z,4.28
2022-11-03T08:13:57.681Z,5.22
2022-11-03T08:16:25.359Z,4.40
2022-11-03T08:18:52.543Z,5.25
2022-11-03T08:21:19.914Z,4.53
2022-11-03T08:23:47.810Z,5.07
2022-11-03T08:26:15.851Z,4.70
2022-11-03T08:28:43.268Z,5.18
2022-11-03T08:31:12.853Z,5.05
2022-11-03T08:33:40.983Z,5.05
2022-11-03T08:36:09.737Z,5.20
2022-11-03T08:38:37.838Z,5.40
2022-11-03T08:41:05.615Z,5.50
2022-11-03T08:43:32.783Z,4.45
2022-11-03T08:46:08.233Z,5.90
2022-11-03T08:48:40.414Z,5.65
2022-11-03T08:51:10.330Z,5.20
2022-11-03T08:53:38.900Z,5.55
2022-11-03T08:56:10.429Z,6.45
2022-11-03T08:58:40.135Z,6.90
2022-11-03T09:01:08.183Z,8.38
2022-11-03T09:03:35.864Z,8.23
2022-11-03T09:06:03.211Z,8.98
2022-11-03T09:11:17.858Z,8.35
2022-11-03T09:13:45.497Z,6.22
2022-11-03T09:16:12.995Z,5.15
2022-11-03T09:18:40.660Z,4.53
2022-11-03T09:21:08.933Z,6.00
2022-11-03T09:23:36.081Z,4.05
2022-11-03T09:26:03.494Z,4.25
2022-11-03T09:28:30.731Z,5.03
2022-11-03T09:30:58.161Z,4.20
2022-11-03T09:33:25.557Z,4.03
2022-11-03T09:35:53.048Z,4.55
2022-11-03T09:38:20.411Z,3.55
2022-11-03T09:43:16.434Z,3.70
2022-11-03T09:45:43.668Z,3.10
2022-11-03T09:48:12.514Z,3.28
2022-11-03T09:50:40.622Z,2.78
2022-11-03T09:53:12.348Z,3.25
2022-11-03T09:55:39.871Z,3.35
2022-11-03T09:58:15.021Z,2.78
2022-11-03T10:00:42.459Z,2.60
2022-11-03T10:03:20.548Z,0.80
2022-11-03T10:05:48.441Z,0.00
2022-11-03T10:08:27.631Z,0.08
2022-11-03T10:10:55.196Z,0.00
2022-11-03T10:13:28.641Z,0.00
2022-11-03T10:15:57.108Z,0.00
2022-11-03T10:18:24.623Z,0.10
2022-11-03T10:20:52.155Z,0.00
2022-11-03T10:23:19.422Z,0.00
2022-11-03T13:59:51.496Z,0.15
2022-11-03T14:05:07.236Z,0.00
2022-11-03T14:07:36.615Z,0.30
2022-11-03T14:10:04.641Z,0.00
2022-11-03T14:12:32.276Z,0.00
2022-11-03T14:15:00.408Z,1.00
2022-11-03T14:17:27.721Z,0.00
2022-11-03T14:19:59.164Z,2.85
2022-11-03T14:22:33.356Z,1.02
2022-11-03T14:25:01.470Z,0.65
2022-11-03T14:27:28.906Z,3.45
2022-11-03T14:29:56.327Z,2.10
2022-11-03T14:32:23.659Z,2.00
2022-11-03T14:34:50.992Z,2.40
2022-11-03T14:37:18.192Z,1.80
2022-11-03T14:39:45.597Z,0.57
2022-11-03T14:42:17.249Z,0.73
2022-11-03T14:44:46.399Z,2.83
2022-11-03T14:47:18.089Z,0.55
2022-11-03T14:49:46.689Z,0.40
2022-11-03T14:52:14.782Z,0.00
2022-11-03T14:54:42.482Z,0.00
2022-11-03T14:57:10.037Z,0.20
2022-11-03T14:59:37.690Z,0.57
2022-11-03T15:02:06.279Z,0.00
2022-11-03T15:04:34.131Z,0.47
2022-11-03T15:07:01.457Z,0.00
2022-11-03T15:09:28.883Z,1.48
2022-11-03T15:11:56.017Z,1.02
2022-11-03T15:14:23.365Z,0.52
2022-11-03T15:16:50.632Z,0.10
2022-11-03T15:19:17.990Z,0.55
2022-11-03T15:21:44.927Z,0.00
2022-11-03T15:26:59.546Z,0.00
2022-11-03T15:29:26.795Z,0.00
2022-11-03T15:31:53.956Z,0.57
2022-11-03T15:34:20.854Z,0.00
2022-11-03T15:36:48.062Z,0.28
2022-11-03T15:39:16.402Z,0.20
2022-11-03T15:41:43.745Z,0.10
2022-11-03T15:44:10.687Z,0.20
2022-11-03T15:46:38.092Z,0.20
2022-11-03T15:49:05.367Z,0.65
2022-11-03T15:51:32.714Z,0.10
2022-11-03T15:53:59.820Z,0.38
2022-11-03T15:56:27.687Z,0.10
2022-11-03T15:58:55.076Z,0.63
2022-11-03T16:01:22.594Z,1.33
2022-11-03T16:03:49.772Z,0.70
2022-11-03T16:06:16.907Z,0.10
2022-11-03T16:08:43.924Z,0.52
2022-11-03T16:11:11.182Z,0.00
2022-11-03T16:13:39.583Z,0.38
2022-11-03T16:16:07.387Z,0.00
2022-11-03T16:18:35.018Z,1.23
2022-11-03T16:21:02.111Z,0.88
2022-11-03T16:23:29.616Z,0.93
2022-11-03T16:25:57.107Z,0.57
2022-11-03T16:28:24.647Z,0.20
2022-11-03T16:30:54.516Z,0.00
2022-11-03T16:33:22.603Z,0.13
2022-11-03T16:35:49.811Z,0.75
2022-11-03T16:38:17.148Z,0.95
2022-11-03T16:40:44.735Z,0.00
2022-11-03T16:43:12.854Z,0.00
2022-11-03T16:45:40.014Z,0.17
2022-11-03T16:48:07.969Z,0.00
2022-11-03T16:50:41.512Z,0.00
2022-11-03T16:53:11.914Z,0.20
2022-11-03T16:55:39.473Z,0.00
2022-11-03T16:58:06.981Z,0.00
2022-11-03T17:00:34.164Z,0.00
2022-11-03T17:03:01.635Z,0.17
2022-11-03T17:05:28.624Z,0.00
2022-11-03T17:07:56.195Z,0.10
2022-11-03T17:10:24.249Z,0.43
2022-11-03T17:12:51.579Z,0.20
2022-11-03T17:15:19.102Z,0.00
2022-11-03T17:17:46.650Z,0.10
2022-11-03T17:20:13.729Z,0.35
2022-11-03T17:22:41.211Z,0.43
2022-11-03T17:25:11.371Z,0.00
2022-11-03T17:27:46.566Z,0.40
2022-11-03T17:30:35.097Z,0.00
2022-11-03T17:33:07.304Z,0.00
2022-11-03T17:35:46.477Z,0.00
2022-11-03T17:38:16.736Z,0.40
2022-11-03T17:40:48.720Z,0.65
2022-11-03T17:43:20.668Z,0.40
2022-11-03T17:45:48.778Z,0.00
2022-11-03T17:48:16.209Z,0.03
2022-11-03T17:50:47.672Z,0.00
2022-11-03T20:26:49.781Z,0.45
2022-11-03T20:29:16.337Z,0.00
2022-11-03T20:31:45.155Z,0.00
2022-11-03T20:34:16.480Z,0.05
2022-11-03T20:36:44.063Z,0.65
2022-11-03T20:39:15.712Z,0.00
2022-11-03T20:41:47.254Z,0.00
2022-11-03T20:44:15.874Z,0.00
2022-11-03T20:46:43.995Z,0.55
2022-11-03T20:49:11.581Z,0.17
2022-11-03T20:51:45.473Z,0.00
2022-11-03T20:54:18.521Z,0.00
2022-11-03T20:56:46.148Z,0.00
2022-11-03T20:59:17.475Z,0.00
2022-11-03T21:01:45.185Z,0.00
2022-11-03T21:04:15.156Z,0.00
2022-11-03T21:06:42.623Z,0.00
2022-11-03T21:09:18.418Z,0.00
2022-11-03T21:11:47.071Z,0.50
2022-11-03T21:14:30.037Z,0.00
2022-11-03T21:17:16.055Z,0.00
2022-11-03T21:20:02.010Z,0.00
2022-11-03T21:25:23.651Z,0.55
2022-11-03T21:27:51.573Z,0.63
2022-11-03T21:30:19.151Z,0.15
2022-11-03T21:32:48.081Z,0.00
2022-11-03T21:35:20.623Z,0.10
2022-11-03T21:37:48.435Z,1.90
2022-11-03T21:40:15.702Z,0.20
2022-11-03T21:43:01.256Z,0.00
2022-11-03T21:45:28.538Z,0.65
2022-11-03T21:48:14.825Z,0.00
2022-11-03T21:50:43.176Z,0.10
2022-11-03T21:53:11.731Z,0.28
2022-11-03T21:55:40.137Z,1.58
2022-11-03T21:58:08.193Z,0.00
2022-11-03T22:00:35.542Z,0.20
2022-11-03T22:03:02.650Z,0.00
2022-11-03T22:05:30.428Z,0.30
2022-11-03T22:07:57.746Z,0.22
2022-11-03T22:10:25.246Z,0.00
2022-11-03T22:12:52.515Z,0.00
2022-11-03T22:15:38.509Z,0.30
2022-11-03T22:18:06.681Z,0.00
2022-11-03T22:20:54.650Z,0.20
2022-11-03T22:23:41.015Z,0.00
2022-11-03T22:26:32.802Z,0.00
2022-11-03T22:29:18.473Z,0.63
2022-11-03T22:31:45.967Z,0.00
2022-11-03T22:34:32.499Z,0.00
2022-11-03T22:36:59.752Z,0.00
2022-11-03T22:39:45.441Z,0.10
2022-11-03T22:42:31.698Z,0.00
2022-11-03T22:45:18.201Z,0.00
2022-11-03T22:47:45.428Z,0.52
2022-11-03T22:50:12.502Z,0.00
2022-11-03T22:52:40.052Z,0.00
2022-11-03T22:55:07.575Z,0.05
2022-11-03T22:57:34.753Z,0.35
2022-11-03T23:00:02.011Z,0.00
2022-11-03T23:02:29.131Z,0.17
2022-11-03T23:04:56.289Z,0.00
2022-11-03T23:07:28.422Z,0.43
2022-11-03T23:09:59.252Z,0.00
2022-11-03T23:12:26.431Z,0.00
2022-11-03T23:15:11.974Z,1.38
2022-11-03T23:18:01.973Z,0.03
2022-11-03T23:20:57.935Z,0.00
2022-11-03T23:23:43.585Z,0.38
2022-11-03T23:26:10.829Z,0.85
2022-11-03T23:28:37.859Z,0.00
2022-11-03T23:31:05.517Z,0.32
2022-11-03T23:33:32.589Z,0.85
2022-11-03T23:36:07.829Z,0.20
2022-11-03T23:38:36.274Z,0.52
2022-11-03T23:41:08.743Z,0.35
2022-11-03T23:43:36.293Z,0.80
2022-11-03T23:46:21.818Z,1.60
2022-11-03T23:48:49.407Z,0.00
2022-11-03T23:51:24.275Z,4.60
2022-11-03T23:53:51.622Z,1.40
2022-11-03T23:56:39.155Z,0.00
2022-11-03T23:59:07.376Z,0.00
